Time;durP1;ratioP1;P1;durP2;ratioP2;P2;SDS_P1;SDS_P2;PMS_P1;PMS_P2;Temp;Humidity;BMP_temperature;BMP_pressure;BME280_temperature;BME280_humidity;BME280_pressure;Samples;Min_cycle;Max_cycle;Signal;HPM_P1;HPM_P2
2022/07/30 00:01:22;;;;;;;8.18;3.15;;;;;;;;;;1700807;83;21516;-74
2022/07/30 00:03:49;;;;;;;6.53;3.30;;;;;;;;;;1696019;82;21082;-73
2022/07/30 00:06:16;;;;;;;9.68;3.37;;;;;;;;;;1699823;82;21084;-74
2022/07/30 00:08:43;;;;;;;8.55;3.22;;;;;;;;;;1701041;83;21071;-75
2022/07/30 00:11:10;;;;;;;10.53;3.08;;;;;;;;;;1706165;83;21064;-75
2022/07/30 00:13:39;;;;;;;7.70;3.20;;;;;;;;;;1704664;82;21003;-75
2022/07/30 00:16:07;;;;;;;8.30;3.10;;;;;;;;;;1700919;82;21067;-74
2022/07/30 00:18:35;;;;;;;7.87;3.42;;;;;;;;;;1703716;82;21027;-74
2022/07/30 00:21:03;;;;;;;10.70;3.22;;;;;;;;;;1706562;83;21048;-75
2022/07/30 00:23:31;;;;;;;12.33;3.45;;;;;;;;;;1707619;82;21093;-75
2022/07/30 00:25:58;;;;;;;7.28;3.25;;;;;;;;;;1706719;83;21145;-74
2022/07/30 00:28:25;;;;;;;10.53;3.30;;;;;;;;;;1704516;82;21069;-77
2022/07/30 00:30:53;;;;;;;8.40;3.58;;;;;;;;;;1685875;83;21075;-76
2022/07/30 00:33:21;;;;;;;9.85;3.40;;;;;;;;;;1703102;83;21096;-76
2022/07/30 00:35:50;;;;;;;11.85;3.83;;;;;;;;;;1704646;83;21480;-76
2022/07/30 00:38:16;;;;;;;7.75;3.50;;;;;;;;;;1698918;83;21098;-75
2022/07/30 00:40:46;;;;;;;8.95;3.47;;;;;;;;;;1705097;83;21552;-76
2022/07/30 00:43:16;;;;;;;8.23;3.70;;;;;;;;;;1700375;82;21078;-76
2022/07/30 00:45:44;;;;;;;14.83;4.10;;;;;;;;;;1708305;83;21083;-75
2022/07/30 00:48:11;;;;;;;10.30;3.98;;;;;;;;;;1695983;82;21612;-75
2022/07/30 00:50:39;;;;;;;9.65;3.60;;;;;;;;;;1703000;83;21055;-76
2022/07/30 00:53:07;;;;;;;13.90;3.95;;;;;;;;;;1704128;82;21032;-76
2022/07/30 00:55:35;;;;;;;7.65;3.50;;;;;;;;;;1698865;83;21084;-76
2022/07/30 00:58:03;;;;;;;6.33;3.95;;;;;;;;;;1704493;83;21061;-76
2022/07/30 01:00:32;;;;;;;8.70;3.87;;;;;;;;;;1701814;82;21539;-76
2022/07/30 01:03:00;;;;;;;8.98;3.98;;;;;;;;;;1700272;82;21070;-75
2022/07/30 01:05:27;;;;;;;8.38;4.28;;;;;;;;;;1705401;82;21060;-76
2022/07/30 01:07:54;;;;;;;9.28;4.22;;;;;;;;;;1696527;82;21064;-75
2022/07/30 01:10:22;;;;;;;9.23;4.10;;;;;;;;;;1704653;83;21035;-73
2022/07/30 01:12:51;;;;;;;7.95;4.10;;;;;;;;;;1701505;83;21519;-75
2022/07/30 01:15:21;;;;;;;8.53;4.12;;;;;;;;;;1711867;83;21082;-75
2022/07/30 01:17:49;;;;;;;52.13;5.62;;;;;;;;;;1700951;83;21619;-75
2022/07/30 01:20:21;;;;;;;13.45;4.40;;;;;;;;;;1705033;83;21040;-75
2022/07/30 01:22:55;;;;;;;9.25;3.85;;;;;;;;;;1702600;82;21097;-75
2022/07/30 01:25:57;;;;;;;11.08;4.22;;;;;;;;;;1704727;83;21604;-75
2022/07/30 01:28:26;;;;;;;8.68;4.45;;;;;;;;;;1718653;83;21055;-74
2022/07/30 01:30:55;;;;;;;10.72;4.42;;;;;;;;;;1702384;83;21039;-74
2022/07/30 01:33:23;;;;;;;8.20;4.00;;;;;;;;;;1705059;83;21117;-75
2022/07/30 01:35:51;;;;;;;8.38;3.92;;;;;;;;;;1701636;82;21538;-75
2022/07/30 01:38:21;;;;;;;11.35;3.95;;;;;;;;;;1704480;83;21035;-76
2022/07/30 01:40:55;;;;;;;13.28;4.67;;;;;;;;;;1710362;83;21527;-75
2022/07/30 01:43:23;;;;;;;10.78;4.35;;;;;;;;;;1708511;83;21228;-74
2022/07/30 01:45:52;;;;;;;11.97;4.03;;;;;;;;;;1699983;82;21067;-73
2022/07/30 01:48:22;;;;;;;10.20;4.67;;;;;;;;;;1698282;82;21055;-73
2022/07/30 01:50:53;;;;;;;6.17;4.28;;;;;;;;;;1699486;83;21094;-74
2022/07/30 01:53:23;;;;;;;10.48;4.65;;;;;;;;;;1706095;83;21614;-75
2022/07/30 01:55:54;;;;;;;11.30;4.90;;;;;;;;;;1701339;82;21616;-73
2022/07/30 01:58:24;;;;;;;10.18;4.90;;;;;;;;;;1703013;83;21521;-73
2022/07/30 02:00:57;;;;;;;12.68;5.40;;;;;;;;;;1704043;84;21021;-74
2022/07/30 02:03:26;;;;;;;12.40;5.17;;;;;;;;;;1703329;83;21089;-73
2022/07/30 02:05:58;;;;;;;11.73;4.92;;;;;;;;;;1707908;83;21099;-72
2022/07/30 02:08:47;;;;;;;8.13;5.03;;;;;;;;;;1697955;82;21327;-74
2022/07/30 02:11:15;;;;;;;10.18;5.05;;;;;;;;;;1700797;83;21080;-74
2022/07/30 02:13:46;;;;;;;8.43;4.60;;;;;;;;;;1706949;83;21111;-73
2022/07/30 02:16:27;;;;;;;10.18;4.60;;;;;;;;;;1704835;82;21138;-74
2022/07/30 02:19:01;;;;;;;8.98;4.67;;;;;;;;;;1701335;82;21655;-73
2022/07/30 02:21:27;;;;;;;7.72;4.60;;;;;;;;;;1700080;83;21570;-73
2022/07/30 02:23:55;;;;;;;8.33;4.50;;;;;;;;;;1707326;82;21067;-73
2022/07/30 02:26:24;;;;;;;9.53;4.50;;;;;;;;;;1705652;82;21592;-74
2022/07/30 02:28:53;;;;;;;11.48;4.37;;;;;;;;;;1702410;84;21044;-73
2022/07/30 02:31:24;;;;;;;6.72;3.70;;;;;;;;;;1702493;82;21043;-72
2022/07/30 02:33:54;;;;;;;9.45;4.20;;;;;;;;;;1710124;83;21053;-73
2022/07/30 02:36:23;;;;;;;10.13;4.20;;;;;;;;;;1702981;82;21054;-73
2022/07/30 02:38:50;;;;;;;8.68;4.03;;;;;;;;;;1685688;83;21040;-74
2022/07/30 02:41:21;;;;;;;9.88;4.55;;;;;;;;;;1704850;82;21121;-72
2022/07/30 02:43:50;;;;;;;12.00;4.05;;;;;;;;;;1703809;82;21054;-73
2022/07/30 02:46:21;;;;;;;7.40;4.33;;;;;;;;;;1705886;82;21048;-73
2022/07/30 02:49:07;;;;;;;9.20;4.58;;;;;;;;;;1704579;83;21044;-73
2022/07/30 02:51:35;;;;;;;13.80;4.65;;;;;;;;;;1705303;84;21119;-73
2022/07/30 02:54:03;;;;;;;8.65;4.30;;;;;;;;;;1712612;82;21528;-73
2022/07/30 02:56:30;;;;;;;9.05;4.85;;;;;;;;;;1703952;84;21060;-72
2022/07/30 02:58:58;;;;;;;14.65;4.72;;;;;;;;;;1712253;82;21059;-72
2022/07/30 03:01:26;;;;;;;10.58;4.50;;;;;;;;;;1713967;82;21048;-73
2022/07/30 03:03:53;;;;;;;11.50;4.83;;;;;;;;;;1715867;82;21075;-72
2022/07/30 03:06:24;;;;;;;8.83;4.67;;;;;;;;;;1638775;87;21059;-72
2022/07/30 03:08:51;;;;;;;10.43;4.92;;;;;;;;;;1622100;87;21564;-73
2022/07/30 03:11:21;;;;;;;11.73;4.10;;;;;;;;;;1618926;87;21131;-73
2022/07/30 03:13:49;;;;;;;9.75;5.08;;;;;;;;;;1620840;87;21076;-73
2022/07/30 03:16:16;;;;;;;11.20;4.35;;;;;;;;;;1616610;88;21218;-74
2022/07/30 03:18:44;;;;;;;8.15;4.33;;;;;;;;;;1618604;87;21061;-73
2022/07/30 03:21:26;;;;;;;10.40;4.30;;;;;;;;;;1620056;87;21102;-73
2022/07/30 03:23:55;;;;;;;9.58;4.40;;;;;;;;;;1621015;88;21064;-73
2022/07/30 03:26:22;;;;;;;6.55;4.10;;;;;;;;;;1624766;87;21048;-74
2022/07/30 03:28:50;;;;;;;7.53;4.40;;;;;;;;;;1610223;88;21115;-73
2022/07/30 03:34:16;;;;;;;6.53;4.12;;;;;;;;;;1705555;83;21098;-73
2022/07/30 03:36:42;;;;;;;8.13;4.60;;;;;;;;;;1681158;84;21493;-72
2022/07/30 03:39:32;;;;;;;11.73;4.30;;;;;;;;;;1656381;86;21672;-72
2022/07/30 03:42:00;;;;;;;21.12;4.30;;;;;;;;;;1627563;85;21123;-73
2022/07/30 03:44:36;;;;;;;10.15;4.33;;;;;;;;;;1650230;86;21106;-73
2022/07/30 03:47:05;;;;;;;13.03;4.85;;;;;;;;;;1664784;85;21121;-73
2022/07/30 03:49:34;;;;;;;9.58;4.50;;;;;;;;;;1654526;86;21063;-72
2022/07/30 03:52:34;;;;;;;13.88;4.72;;;;;;;;;;1664234;86;21165;-73
2022/07/30 03:55:03;;;;;;;18.85;4.70;;;;;;;;;;1656351;86;21063;-73
2022/07/30 03:57:59;;;;;;;13.18;4.72;;;;;;;;;;1655422;85;21101;-74
2022/07/30 04:00:28;;;;;;;11.15;4.70;;;;;;;;;;1650430;85;21531;-73
2022/07/30 04:02:55;;;;;;;6.62;4.42;;;;;;;;;;1657621;84;21076;-73
2022/07/30 04:11:38;;;;;;;12.28;4.33;;;;;;;;;;1703134;83;21092;-74
2022/07/30 04:14:09;;;;;;;6.92;4.05;;;;;;;;;;1705465;82;21197;-73
2022/07/30 04:22:46;;;;;;;6.50;3.90;;;;;;;;;;1706161;82;21156;-73
2022/07/30 04:25:14;;;;;;;10.00;3.75;;;;;;;;;;1702762;83;21080;-73
2022/07/30 04:27:42;;;;;;;8.35;3.75;;;;;;;;;;1705206;82;21592;-73
2022/07/30 04:30:18;;;;;;;10.98;3.87;;;;;;;;;;1698739;83;22395;-73
2022/07/30 04:32:46;;;;;;;16.70;3.70;;;;;;;;;;1710577;82;21736;-73
2022/07/30 04:35:27;;;;;;;8.68;3.62;;;;;;;;;;1589319;89;21124;-73
2022/07/30 04:38:20;;;;;;;8.25;3.75;;;;;;;;;;1589042;89;21272;-73
2022/07/30 04:46:34;;;;;;;8.50;3.22;;;;;;;;;;1603713;86;21075;-73
2022/07/30 04:49:13;;;;;;;10.48;3.20;;;;;;;;;;1675249;85;21059;-73
2022/07/30 04:51:45;;;;;;;7.30;3.50;;;;;;;;;;1689738;83;21548;-73
2022/07/30 04:54:13;;;;;;;7.40;3.50;;;;;;;;;;1708507;83;21578;-72
2022/07/30 04:56:41;;;;;;;7.40;3.45;;;;;;;;;;1703173;82;21068;-73
2022/07/30 04:59:09;;;;;;;10.18;3.52;;;;;;;;;;1706276;82;21517;-73
2022/07/30 05:01:38;;;;;;;7.00;3.25;;;;;;;;;;1707240;83;21529;-74
2022/07/30 05:04:24;;;;;;;10.75;3.62;;;;;;;;;;1702317;82;21042;-72
2022/07/30 05:06:53;;;;;;;10.53;5.05;;;;;;;;;;1716855;83;21504;-72
2022/07/30 05:09:21;;;;;;;6.78;3.80;;;;;;;;;;1702820;83;21183;-73
2022/07/30 05:12:02;;;;;;;9.80;4.40;;;;;;;;;;1677733;83;21102;-72
2022/07/30 05:14:29;;;;;;;6.20;4.10;;;;;;;;;;1704823;83;21103;-73
2022/07/30 05:16:58;;;;;;;11.15;4.15;;;;;;;;;;1698657;83;21132;-73
2022/07/30 05:19:32;;;;;;;9.23;3.80;;;;;;;;;;1717813;81;21063;-73
2022/07/30 05:22:00;;;;;;;8.80;3.80;;;;;;;;;;1706753;82;21067;-74
2022/07/30 05:24:36;;;;;;;9.08;3.80;;;;;;;;;;1675911;82;21088;-72
2022/07/30 05:27:19;;;;;;;6.37;3.83;;;;;;;;;;1695597;82;21039;-72
2022/07/30 05:29:46;;;;;;;9.28;3.37;;;;;;;;;;1715327;83;21023;-73
2022/07/30 05:35:17;;;;;;;8.65;3.30;;;;;;;;;;1705588;83;21012;-72
2022/07/30 05:37:43;;;;;;;9.90;3.58;;;;;;;;;;1703595;83;21034;-73
2022/07/30 05:40:45;;;;;;;8.30;2.95;;;;;;;;;;1692640;83;21040;-72
2022/07/30 05:43:49;;;;;;;;;;;;;;;;;;1700388;83;21063;-72
2022/07/30 05:46:17;;;;;;;6.78;3.40;;;;;;;;;;1706104;83;20130;-73
2022/07/30 05:48:53;;;;;;;9.25;3.02;;;;;;;;;;1714463;82;21503;-73
2022/07/30 05:54:22;;;;;;;8.78;4.30;;;;;;;;;;1698336;82;21047;-72
2022/07/30 05:57:13;;;;;;;8.13;3.10;;;;;;;;;;1707982;83;21017;-73
2022/07/30 06:00:06;;;;;;;10.25;3.45;;;;;;;;;;1697325;82;21066;-73
2022/07/30 06:03:12;;;;;;;5.03;2.80;;;;;;;;;;1697674;83;21230;-74
2022/07/30 06:05:40;;;;;;;5.50;2.80;;;;;;;;;;1696183;83;21528;-74
2022/07/30 06:11:03;;;;;;;8.40;3.08;;;;;;;;;;1698421;84;21014;-73
2022/07/30 06:13:31;;;;;;;4.45;2.75;;;;;;;;;;1705045;83;21521;-74
2022/07/30 06:19:10;;;;;;;7.25;2.60;;;;;;;;;;1719392;82;21525;-73
2022/07/30 06:24:51;;;;;;;11.28;2.65;;;;;;;;;;1669126;83;21122;-74
2022/07/30 06:27:28;;;;;;;8.25;3.00;;;;;;;;;;1660992;85;21056;-74
2022/07/30 06:29:58;;;;;;;8.63;3.12;;;;;;;;;;1669489;84;21041;-73
2022/07/30 06:32:25;;;;;;;6.67;2.52;;;;;;;;;;1658419;85;21048;-74
2022/07/30 06:34:53;;;;;;;5.75;2.50;;;;;;;;;;1685786;84;21103;-74
2022/07/30 06:37:28;;;;;;;4.78;2.30;;;;;;;;;;1685416;83;21142;-73
2022/07/30 06:39:57;;;;;;;4.70;2.40;;;;;;;;;;1683514;84;21056;-74
2022/07/30 06:42:25;;;;;;;11.53;2.45;;;;;;;;;;1674983;84;21508;-74
2022/07/30 06:45:02;;;;;;;11.85;2.90;;;;;;;;;;1674057;84;21055;-73
2022/07/30 06:47:38;;;;;;;5.20;2.87;;;;;;;;;;1683690;84;21060;-72
2022/07/30 06:53:00;;;;;;;6.17;2.45;;;;;;;;;;1691442;84;21091;-74
2022/07/30 06:55:29;;;;;;;7.87;3.08;;;;;;;;;;1685132;84;21091;-74
2022/07/30 06:58:05;;;;;;;8.15;3.00;;;;;;;;;;1685552;84;21047;-73
2022/07/30 07:00:56;;;;;;;10.15;2.70;;;;;;;;;;1689268;84;21048;-74
2022/07/30 07:03:25;;;;;;;11.22;2.85;;;;;;;;;;1674074;83;21112;-72
2022/07/30 07:08:44;;;;;;;6.10;2.40;;;;;;;;;;1648639;86;21540;-73
2022/07/30 07:11:14;;;;;;;5.72;2.20;;;;;;;;;;1628841;86;21036;-72
2022/07/30 07:14:06;;;;;;;7.00;2.00;;;;;;;;;;1622353;87;21063;-72
2022/07/30 07:16:48;;;;;;;3.52;1.60;;;;;;;;;;1628749;86;21079;-72
2022/07/30 07:19:18;;;;;;;7.33;1.60;;;;;;;;;;1619648;87;21092;-72
2022/07/30 07:21:47;;;;;;;7.50;2.02;;;;;;;;;;1601783;87;21072;-73
2022/07/30 07:24:14;;;;;;;2.95;1.77;;;;;;;;;;1592102;90;21108;-74
2022/07/30 07:27:06;;;;;;;4.45;1.80;;;;;;;;;;1591980;90;21635;-73
2022/07/30 07:29:33;;;;;;;4.25;1.80;;;;;;;;;;1591722;87;21112;-73
2022/07/30 07:34:58;;;;;;;4.40;1.75;;;;;;;;;;1625647;86;21111;-74
2022/07/30 07:40:55;;;;;;;5.70;2.47;;;;;;;;;;1647662;86;21124;-71
2022/07/30 07:43:23;;;;;;;8.50;2.40;;;;;;;;;;1645015;85;21190;-73
2022/07/30 07:46:23;;;;;;;9.10;2.20;;;;;;;;;;1652447;84;21064;-73
2022/07/30 07:48:56;;;;;;;6.55;2.17;;;;;;;;;;1650962;84;21059;-72
2022/07/30 07:52:00;;;;;;;5.75;2.22;;;;;;;;;;1642892;84;21056;-73
2022/07/30 07:54:27;;;;;;;3.92;1.90;;;;;;;;;;1673400;84;21171;-73
2022/07/30 07:57:00;;;;;;;5.53;1.75;;;;;;;;;;1673289;84;21503;-73
2022/07/30 07:59:53;;;;;;;4.62;1.90;;;;;;;;;;1671691;84;21190;-73
2022/07/30 08:05:20;;;;;;;6.60;1.75;;;;;;;;;;1680138;84;21063;-73
2022/07/30 08:08:00;;;;;;;4.80;1.93;;;;;;;;;;1666823;84;21595;-74
2022/07/30 08:17:05;;;;;;;4.25;1.90;;;;;;;;;;1669869;84;21042;-74
2022/07/30 08:22:38;;;;;;;5.97;1.70;;;;;;;;;;1679507;84;21100;-73
2022/07/30 08:25:06;;;;;;;4.75;2.15;;;;;;;;;;1666327;84;21158;-74
2022/07/30 08:27:35;;;;;;;2.62;1.70;;;;;;;;;;1669392;84;21100;-73
2022/07/30 08:30:09;;;;;;;3.98;1.98;;;;;;;;;;1678204;84;21068;-74
2022/07/30 08:35:25;;;;;;;5.78;1.90;;;;;;;;;;1679590;84;21176;-73
2022/07/30 08:37:51;;;;;;;3.52;1.70;;;;;;;;;;1667728;84;21098;-73
2022/07/30 08:40:33;;;;;;;5.90;2.05;;;;;;;;;;1666818;85;21096;-73
2022/07/30 08:43:08;;;;;;;7.35;2.25;;;;;;;;;;1668769;85;21047;-73
2022/07/30 08:45:38;;;;;;;4.58;1.87;;;;;;;;;;1686011;84;21111;-73
2022/07/30 08:48:43;;;;;;;8.55;1.70;;;;;;;;;;1677113;84;21130;-73
2022/07/30 08:51:27;;;;;;;11.08;2.15;;;;;;;;;;1683939;84;21118;-73
2022/07/30 08:54:05;;;;;;;7.17;2.00;;;;;;;;;;1646728;84;21142;-74
2022/07/30 08:56:33;;;;;;;4.05;1.72;;;;;;;;;;1683581;84;21659;-73
2022/07/30 09:01:50;;;;;;;4.87;1.87;;;;;;;;;;1675368;84;21095;-73
2022/07/30 09:07:26;;;;;;;3.92;1.62;;;;;;;;;;1675676;84;21662;-75
2022/07/30 09:10:09;;;;;;;5.65;1.72;;;;;;;;;;1673206;84;21029;-72
2022/07/30 09:15:27;;;;;;;3.77;1.70;;;;;;;;;;1731062;81;21102;-73
2022/07/30 09:27:06;;;;;;;9.93;2.50;;;;;;;;;;1653648;84;20986;-73
2022/07/30 09:29:56;;;;;;;;;;;;;;;;;;1729882;81;21090;-73
2022/07/30 09:33:17;;;;;;;4.10;1.98;;;;;;;;;;1732203;81;20127;-71
2022/07/30 09:38:57;;;;;;;6.78;2.30;;;;;;;;;;1743637;80;21049;-74
2022/07/30 09:41:49;;;;;;;9.28;2.15;;;;;;;;;;1747257;80;21023;-74
2022/07/30 09:44:36;;;;;;;5.40;2.08;;;;;;;;;;1742907;81;21015;-74
2022/07/30 09:47:03;;;;;;;5.12;2.05;;;;;;;;;;1733795;81;21648;-74
2022/07/30 09:49:32;;;;;;;4.30;2.65;;;;;;;;;;1743812;80;21059;-72
2022/07/30 09:52:52;;;;;;;5.10;2.20;;;;;;;;;;1745395;80;21087;-73
2022/07/30 09:55:35;;;;;;;5.70;2.30;;;;;;;;;;1733881;80;21024;-73
2022/07/30 10:01:19;;;;;;;4.72;2.37;;;;;;;;;;1734527;81;20181;-73
2022/07/30 10:07:21;;;;;;;6.53;2.50;;;;;;;;;;1736676;80;21105;-73
2022/07/30 10:10:10;;;;;;;8.70;3.00;;;;;;;;;;1679678;84;21048;-73
2022/07/30 10:12:44;;;;;;;7.08;3.10;;;;;;;;;;1690180;81;21034;-74
2022/07/30 10:15:12;;;;;;;6.58;3.60;;;;;;;;;;1712016;81;21051;-74
2022/07/30 10:17:51;;;;;;;7.10;3.60;;;;;;;;;;1739441;81;21539;-74
2022/07/30 10:21:06;;;;;;;4.37;3.20;;;;;;;;;;1735443;80;21237;-72
2022/07/30 10:23:57;;;;;;;3.60;3.02;;;;;;;;;;1735254;81;21137;-74
2022/07/30 10:26:54;;;;;;;6.95;3.02;;;;;;;;;;1730500;82;21046;-73
2022/07/30 10:29:47;;;;;;;4.10;2.83;;;;;;;;;;1731752;82;20987;-74
2022/07/30 10:32:19;;;;;;;4.80;3.00;;;;;;;;;;1729135;81;21050;-73
2022/07/30 10:34:47;;;;;;;5.97;3.10;;;;;;;;;;1741790;80;21027;-73
2022/07/30 10:46:57;;;;;;;5.53;2.90;;;;;;;;;;1731918;80;21515;-73
2022/07/30 10:49:24;;;;;;;9.05;2.80;;;;;;;;;;1741410;81;20988;-73
2022/07/30 10:51:58;;;;;;;9.43;2.90;;;;;;;;;;1722417;80;21065;-74
2022/07/30 10:54:47;;;;;;;5.55;2.50;;;;;;;;;;1753728;81;21050;-71
2022/07/30 11:00:16;;;;;;;4.87;2.75;;;;;;;;;;1718150;82;21068;-74
2022/07/30 11:02:59;;;;;;;6.15;2.72;;;;;;;;;;1702580;82;21074;-71
2022/07/30 11:05:30;;;;;;;6.45;2.37;;;;;;;;;;1708220;83;21114;-72
2022/07/30 11:08:00;;;;;;;8.08;2.20;;;;;;;;;;1713715;83;21044;-72
2022/07/30 11:10:39;;;;;;;9.28;2.42;;;;;;;;;;1697879;82;21020;-73
2022/07/30 11:13:06;;;;;;;7.00;2.35;;;;;;;;;;1708008;83;21062;-70
2022/07/30 11:18:46;;;;;;;5.08;2.15;;;;;;;;;;1714355;82;21651;-71
2022/07/30 11:21:24;;;;;;;8.00;2.20;;;;;;;;;;1725102;80;21016;-72
2022/07/30 11:23:52;;;;;;;5.22;2.30;;;;;;;;;;1725409;82;21543;-72
2022/07/30 11:26:32;;;;;;;4.47;2.00;;;;;;;;;;1752195;80;21051;-72
2022/07/30 11:29:02;;;;;;;3.72;2.20;;;;;;;;;;1736321;80;21234;-73
2022/07/30 11:31:47;;;;;;;4.37;2.37;;;;;;;;;;1742875;80;21629;-73
2022/07/30 11:34:24;;;;;;;3.85;2.35;;;;;;;;;;1734213;80;20984;-73
2022/07/30 11:37:17;;;;;;;5.00;2.12;;;;;;;;;;1715461;81;21031;-73
2022/07/30 11:40:15;;;;;;;3.98;2.20;;;;;;;;;;1707157;81;21040;-74
2022/07/30 11:42:44;;;;;;;6.50;3.60;;;;;;;;;;1659993;84;21211;-72
2022/07/30 11:45:42;;;;;;;11.88;5.10;;;;;;;;;;1682747;83;21108;-73
2022/07/30 11:48:10;;;;;;;15.70;8.95;;;;;;;;;;1689904;84;21092;-73
2022/07/30 11:53:27;;;;;;;5.00;2.40;;;;;;;;;;1710345;83;21073;-73
2022/07/30 11:58:54;;;;;;;6.40;2.40;;;;;;;;;;1696027;82;21040;-71
2022/07/30 12:01:43;;;;;;;6.80;2.52;;;;;;;;;;1708295;83;21124;-72
2022/07/30 12:04:11;;;;;;;6.87;2.20;;;;;;;;;;1717844;82;21053;-73
2022/07/30 12:13:31;;;;;;;3.90;2.10;;;;;;;;;;1620428;86;21249;-72
2022/07/30 12:22:00;;;;;;;4.72;2.25;;;;;;;;;;1620239;88;21098;-72
2022/07/30 12:24:32;;;;;;;2.27;2.00;;;;;;;;;;1613210;88;21118;-72
2022/07/30 12:30:18;;;;;;;;;;;;;;;;;;1617739;87;21055;-73
2022/07/30 12:32:45;;;;;;;5.58;2.20;;;;;;;;;;1627535;84;20199;-73
2022/07/30 12:35:12;;;;;;;6.85;2.27;;;;;;;;;;1711893;83;21110;-72
2022/07/30 12:41:12;;;;;;;4.72;2.05;;;;;;;;;;1692655;82;21075;-72
2022/07/30 12:52:34;;;;;;;5.70;2.02;;;;;;;;;;1717730;83;21114;-72
2022/07/30 12:55:05;;;;;;;3.75;2.00;;;;;;;;;;1709518;83;21090;-73
2022/07/30 12:57:54;;;;;;;3.30;1.90;;;;;;;;;;1704977;82;21090;-73
2022/07/30 13:00:28;;;;;;;3.22;2.00;;;;;;;;;;1699741;83;21065;-72
2022/07/30 13:02:56;;;;;;;5.50;2.20;;;;;;;;;;1694503;83;21023;-72
2022/07/30 13:05:44;;;;;;;7.30;2.30;;;;;;;;;;1684100;83;21012;-72
2022/07/30 13:08:11;;;;;;;4.35;1.87;;;;;;;;;;1707982;82;21044;-73
2022/07/30 13:10:53;;;;;;;7.90;2.00;;;;;;;;;;1705334;83;21127;-72
2022/07/30 13:13:21;;;;;;;4.90;2.10;;;;;;;;;;1708482;84;21035;-72
2022/07/30 13:15:59;;;;;;;3.45;2.20;;;;;;;;;;1695427;83;21070;-73
2022/07/30 13:18:30;;;;;;;4.70;2.22;;;;;;;;;;1709688;83;21098;-73
2022/07/30 13:20:58;;;;;;;5.03;2.10;;;;;;;;;;1697314;83;21047;-72
2022/07/30 13:23:27;;;;;;;6.22;2.20;;;;;;;;;;1699395;83;21200;-73
2022/07/30 13:25:56;;;;;;;5.17;2.20;;;;;;;;;;1713922;83;21071;-72
2022/07/30 13:28:22;;;;;;;9.13;2.12;;;;;;;;;;1698806;83;21074;-72
2022/07/30 13:30:49;;;;;;;6.92;2.10;;;;;;;;;;1704990;83;21594;-72
2022/07/30 13:33:16;;;;;;;4.25;2.22;;;;;;;;;;1683093;83;21066;-72
2022/07/30 13:35:43;;;;;;;5.55;2.22;;;;;;;;;;1689345;82;21059;-72
2022/07/30 13:38:12;;;;;;;5.22;2.33;;;;;;;;;;1698982;83;21099;-70
2022/07/30 13:40:38;;;;;;;5.45;2.30;;;;;;;;;;1690069;83;21127;-72
2022/07/30 13:43:05;;;;;;;5.30;2.08;;;;;;;;;;1709687;83;21047;-73
2022/07/30 13:45:32;;;;;;;5.15;2.55;;;;;;;;;;1693090;83;21034;-72
2022/07/30 13:47:59;;;;;;;7.45;2.20;;;;;;;;;;1664663;83;21075;-72
2022/07/30 13:50:27;;;;;;;4.40;2.35;;;;;;;;;;1711317;83;21149;-72
2022/07/30 13:52:55;;;;;;;5.33;2.17;;;;;;;;;;1697907;82;21072;-72
2022/07/30 13:55:22;;;;;;;4.70;2.10;;;;;;;;;;1693189;83;21090;-71
2022/07/30 13:57:49;;;;;;;4.80;2.40;;;;;;;;;;1701009;83;21102;-73
2022/07/30 14:00:17;;;;;;;3.65;2.30;;;;;;;;;;1689645;83;21148;-72
2022/07/30 14:02:45;;;;;;;3.90;2.22;;;;;;;;;;1698566;83;21007;-72
2022/07/30 14:05:13;;;;;;;4.87;2.20;;;;;;;;;;1695080;83;21031;-72
2022/07/30 14:07:40;;;;;;;6.58;2.40;;;;;;;;;;1688069;83;21141;-71
2022/07/30 14:10:10;;;;;;;4.33;2.27;;;;;;;;;;1699372;83;21654;-72
2022/07/30 14:12:38;;;;;;;2.83;1.90;;;;;;;;;;1700644;83;21102;-72
2022/07/30 14:15:08;;;;;;;3.90;1.82;;;;;;;;;;1715367;82;21548;-73
2022/07/30 14:17:36;;;;;;;5.20;2.05;;;;;;;;;;1688270;83;21113;-73
2022/07/30 14:20:06;;;;;;;5.90;2.10;;;;;;;;;;1710277;83;21015;-73
2022/07/30 14:22:33;;;;;;;5.08;2.25;;;;;;;;;;1698653;83;21066;-73
2022/07/30 14:25:01;;;;;;;3.37;2.10;;;;;;;;;;1686701;83;21142;-72
2022/07/30 14:27:28;;;;;;;2.90;2.40;;;;;;;;;;1693687;83;21036;-73
2022/07/30 14:29:56;;;;;;;5.50;2.25;;;;;;;;;;1685781;83;21070;-72
2022/07/30 14:32:23;;;;;;;3.40;2.10;;;;;;;;;;1689242;83;22393;-73
2022/07/30 14:34:51;;;;;;;5.95;2.90;;;;;;;;;;1697444;83;21130;-73
2022/07/30 14:37:18;;;;;;;14.10;5.90;;;;;;;;;;1710420;83;21093;-71
2022/07/30 14:39:45;;;;;;;8.75;3.52;;;;;;;;;;1679399;83;21077;-73
2022/07/30 14:42:11;;;;;;;7.25;2.95;;;;;;;;;;1708191;82;21557;-73
2022/07/30 14:44:38;;;;;;;7.95;3.10;;;;;;;;;;1691764;83;21097;-72
2022/07/30 14:47:08;;;;;;;2.87;2.00;;;;;;;;;;1694995;83;21507;-72
2022/07/30 14:49:35;;;;;;;7.97;2.80;;;;;;;;;;1712720;84;21051;-73
2022/07/30 14:52:03;;;;;;;5.78;2.30;;;;;;;;;;1708558;83;21185;-73
2022/07/30 14:54:32;;;;;;;5.30;2.70;;;;;;;;;;1706011;83;21078;-72
2022/07/30 14:57:00;;;;;;;5.53;3.00;;;;;;;;;;1714250;83;21012;-72
2022/07/30 14:59:27;;;;;;;8.38;3.35;;;;;;;;;;1707818;83;21132;-72
2022/07/30 15:01:55;;;;;;;5.72;2.50;;;;;;;;;;1703071;83;21051;-72
2022/07/30 15:04:22;;;;;;;5.83;2.22;;;;;;;;;;1697324;83;21165;-71
2022/07/30 15:06:50;;;;;;;7.85;2.85;;;;;;;;;;1698578;83;21543;-72
2022/07/30 15:09:18;;;;;;;6.62;2.65;;;;;;;;;;1705723;83;21051;-72
2022/07/30 15:11:45;;;;;;;6.67;2.80;;;;;;;;;;1708689;83;21071;-71
2022/07/30 15:14:12;;;;;;;7.25;2.70;;;;;;;;;;1702556;83;21173;-72
2022/07/30 15:16:39;;;;;;;4.87;2.50;;;;;;;;;;1700711;83;21043;-72
2022/07/30 15:19:08;;;;;;;5.30;2.40;;;;;;;;;;1694770;83;21093;-71
2022/07/30 15:21:36;;;;;;;5.25;2.37;;;;;;;;;;1698390;83;21531;-72
2022/07/30 15:24:05;;;;;;;4.75;2.60;;;;;;;;;;1694338;83;21091;-72
2022/07/30 15:26:32;;;;;;;6.33;2.30;;;;;;;;;;1683681;83;21106;-71
2022/07/30 15:28:59;;;;;;;8.65;4.20;;;;;;;;;;1707570;82;21079;-72
2022/07/30 15:31:25;;;;;;;3.65;2.50;;;;;;;;;;1692487;83;21522;-72
2022/07/30 15:33:54;;;;;;;3.58;2.60;;;;;;;;;;1695435;83;21019;-72
2022/07/30 15:36:20;;;;;;;7.25;2.70;;;;;;;;;;1712520;83;21011;-72
2022/07/30 15:38:51;;;;;;;6.53;4.00;;;;;;;;;;1720536;83;21031;-72
2022/07/30 15:41:18;;;;;;;11.08;5.97;;;;;;;;;;1698119;83;21051;-72
2022/07/30 15:43:46;;;;;;;16.07;9.80;;;;;;;;;;1680339;83;21207;-72
2022/07/30 15:46:14;;;;;;;8.85;4.58;;;;;;;;;;1696561;83;21602;-73
2022/07/30 15:48:41;;;;;;;13.88;9.88;;;;;;;;;;1725286;83;21456;-73
2022/07/30 15:51:09;;;;;;;9.03;5.45;;;;;;;;;;1710933;83;21133;-72
2022/07/30 15:53:38;;;;;;;7.12;4.70;;;;;;;;;;1714386;83;21114;-72
2022/07/30 15:56:05;;;;;;;8.35;4.80;;;;;;;;;;1714358;83;21083;-72
2022/07/30 15:58:32;;;;;;;5.33;2.80;;;;;;;;;;1699414;83;21051;-72
2022/07/30 16:00:59;;;;;;;5.03;2.67;;;;;;;;;;1703275;82;21042;-72
2022/07/30 16:03:26;;;;;;;9.35;2.70;;;;;;;;;;1689230;83;21046;-72
2022/07/30 16:05:53;;;;;;;7.72;2.62;;;;;;;;;;1687685;83;21082;-72
2022/07/30 16:08:21;;;;;;;5.08;2.60;;;;;;;;;;1709290;84;21102;-73
2022/07/30 16:10:48;;;;;;;4.80;2.62;;;;;;;;;;1713217;83;21058;-73
2022/07/30 16:13:15;;;;;;;4.90;2.33;;;;;;;;;;1691665;83;21526;-72
2022/07/30 16:15:42;;;;;;;5.25;2.70;;;;;;;;;;1688502;83;21090;-73
2022/07/30 16:18:09;;;;;;;6.10;2.60;;;;;;;;;;1690916;83;20996;-73
2022/07/30 16:20:37;;;;;;;5.62;2.85;;;;;;;;;;1701133;83;21562;-73
2022/07/30 16:23:05;;;;;;;7.05;2.40;;;;;;;;;;1708041;83;21130;-73
2022/07/30 16:25:32;;;;;;;2.90;2.52;;;;;;;;;;1711485;83;21583;-72
2022/07/30 16:27:58;;;;;;;5.20;2.40;;;;;;;;;;1704305;83;21113;-73
2022/07/30 16:30:27;;;;;;;5.95;2.50;;;;;;;;;;1709985;82;21058;-73
2022/07/30 16:32:55;;;;;;;8.38;3.10;;;;;;;;;;1693805;83;21066;-73
2022/07/30 16:35:22;;;;;;;4.87;2.70;;;;;;;;;;1699677;82;21110;-73
2022/07/30 16:37:49;;;;;;;9.30;2.65;;;;;;;;;;1695547;83;21046;-73
2022/07/30 16:40:18;;;;;;;3.95;2.80;;;;;;;;;;1698903;83;21070;-73
2022/07/30 16:42:46;;;;;;;6.05;2.72;;;;;;;;;;1715060;83;21118;-73
2022/07/30 16:45:13;;;;;;;9.53;3.30;;;;;;;;;;1710423;81;21024;-73
2022/07/30 16:47:40;;;;;;;9.23;2.90;;;;;;;;;;1700211;83;21083;-72
2022/07/30 16:50:09;;;;;;;5.80;3.17;;;;;;;;;;1674673;84;21554;-71
2022/07/30 16:52:36;;;;;;;8.90;2.87;;;;;;;;;;1705771;83;21066;-72
2022/07/30 16:55:05;;;;;;;7.60;2.98;;;;;;;;;;1713894;83;21039;-72
2022/07/30 16:57:35;;;;;;;8.45;3.00;;;;;;;;;;1694545;83;21139;-72
2022/07/30 17:00:07;;;;;;;11.45;3.50;;;;;;;;;;1709847;83;21113;-72
2022/07/30 17:02:34;;;;;;;8.03;3.10;;;;;;;;;;1711938;83;21083;-72
2022/07/30 17:05:03;;;;;;;8.35;2.90;;;;;;;;;;1701071;83;21067;-72
2022/07/30 17:07:30;;;;;;;9.60;3.00;;;;;;;;;;1697261;83;21078;-70
2022/07/30 17:09:57;;;;;;;5.12;3.25;;;;;;;;;;1710108;83;21106;-72
2022/07/30 17:12:25;;;;;;;6.90;3.20;;;;;;;;;;1715663;82;21177;-71
2022/07/30 17:14:52;;;;;;;6.20;3.10;;;;;;;;;;1743281;80;21047;-71
2022/07/30 17:17:21;;;;;;;4.67;2.98;;;;;;;;;;1743260;80;21082;-72
2022/07/30 17:19:48;;;;;;;6.42;2.98;;;;;;;;;;1729034;80;21000;-72
2022/07/30 17:22:17;;;;;;;7.62;3.08;;;;;;;;;;1742807;80;21023;-72
2022/07/30 17:24:45;;;;;;;8.28;3.10;;;;;;;;;;1750589;80;21534;-73
2022/07/30 17:27:12;;;;;;;4.67;2.90;;;;;;;;;;1762179;80;21086;-72
2022/07/30 17:29:40;;;;;;;5.70;3.00;;;;;;;;;;1753609;80;21032;-72
2022/07/30 17:32:07;;;;;;;5.87;3.10;;;;;;;;;;1766412;80;21098;-72